Spencerville, Maryland
Current Conditions -  °F | °C
As of 9:35 AM on Saturday 22 Nov 2014 (Local Time) from KCGS Reporting Station
Clear Clear  
Wind Chill: 29°   Ceiling: Unl
Heat Index: 36°   Visibility: 10mi
Dew Point: 18°   Wind: 8mph
Humidity: 48%   Direction: 190°S
Pressure: 30.51"   Gusts: NA
Location:  39.11°N, 76.98°W
Report Text: KCGS 221435Z AUTO 19007KT 140V230 10SM CLR 02/M08 A3051 RMK AO1
Loading
Personal Weather Stations






























Interactive Weather Map New forecast layout! Learn more

10-Day Weather Forecast

Advertisements
Track Severe Weather on mobile